Time;durP1;ratioP1;P1;durP2;ratioP2;P2;SDS_P1;SDS_P2;PMS_P1;PMS_P2;Temp;Humidity;BMP_temperature;BMP_pressure;BME280_temperature;BME280_humidity;BME280_pressure;Samples;Min_cycle;Max_cycle;Signal;HPM_P1;HPM_P2
2021/05/31 00:00:17;;;;;;;57.83;2.40;;;9.00;1.00;;;;;;4992118;28;20563;-67
2021/05/31 00:02:44;;;;;;;57.67;2.53;;;9.00;1.00;;;;;;4992155;28;20499;-67
2021/05/31 00:05:12;;;;;;;57.83;2.60;;;8.90;1.00;;;;;;4992228;28;20490;-67
2021/05/31 00:07:39;;;;;;;57.83;2.57;;;8.90;1.00;;;;;;4995821;28;20553;-68
2021/05/31 00:10:08;;;;;;;57.70;2.63;;;8.90;1.00;;;;;;4995642;28;20548;-67
2021/05/31 00:12:35;;;;;;;58.03;2.60;;;8.90;1.00;;;;;;4995775;28;20445;-67
2021/05/31 00:15:02;;;;;;;57.83;2.53;;;8.90;1.00;;;;;;4995843;28;20454;-68
2021/05/31 00:17:29;;;;;;;57.97;2.70;;;8.80;1.00;;;;;;4995342;28;21015;-68
2021/05/31 00:19:55;;;;;;;57.93;2.77;;;8.90;1.00;;;;;;4995487;28;20571;-68
2021/05/31 00:22:23;;;;;;;57.97;2.70;;;8.80;1.00;;;;;;4995677;28;21041;-68
2021/05/31 00:24:51;;;;;;;57.87;2.70;;;8.80;1.00;;;;;;4995423;28;21037;-68
2021/05/31 00:27:18;;;;;;;57.87;2.90;;;8.80;1.00;;;;;;4995395;28;20472;-68
2021/05/31 00:29:45;;;;;;;58.10;2.70;;;8.80;1.00;;;;;;4995518;28;20488;-67
2021/05/31 00:32:13;;;;;;;57.80;2.60;;;8.70;1.00;;;;;;4995309;28;20543;-68
2021/05/31 00:34:39;;;;;;;58.05;2.80;;;8.70;1.00;;;;;;4995997;28;20538;-67
2021/05/31 00:37:06;;;;;;;57.97;2.67;;;8.60;1.00;;;;;;4995034;28;20746;-68
2021/05/31 00:39:32;;;;;;;59.20;2.70;;;8.50;1.00;;;;;;4995544;28;20449;-68
2021/05/31 00:42:00;;;;;;;58.07;2.80;;;8.60;1.00;;;;;;4995601;28;20536;-68
2021/05/31 00:44:26;;;;;;;57.87;2.50;;;8.40;1.00;;;;;;4995431;28;20543;-68
2021/05/31 00:46:54;;;;;;;57.93;2.47;;;8.40;1.00;;;;;;4995079;28;20564;-68
2021/05/31 00:49:22;;;;;;;57.90;2.40;;;8.40;1.00;;;;;;4994923;28;20575;-68
2021/05/31 00:51:50;;;;;;;58.10;2.50;;;8.30;1.00;;;;;;4994923;28;20903;-67
2021/05/31 00:54:16;;;;;;;57.95;2.60;;;8.30;1.00;;;;;;4995195;28;21011;-67
2021/05/31 00:56:44;;;;;;;57.87;2.50;;;8.30;1.00;;;;;;4994835;28;20302;-67
2021/05/31 00:59:11;;;;;;;57.90;2.50;;;8.30;1.00;;;;;;4994909;28;20957;-67
2021/05/31 01:01:37;;;;;;;57.87;2.40;;;8.30;1.00;;;;;;4994934;28;20451;-67
2021/05/31 01:04:05;;;;;;;58.17;2.60;;;8.30;1.00;;;;;;4994842;28;20547;-68
2021/05/31 01:06:34;;;;;;;57.63;2.47;;;8.20;1.00;;;;;;4994500;28;20485;-67
2021/05/31 01:09:07;;;;;;;57.77;2.50;;;8.20;1.00;;;;;;4994757;28;20976;-67
2021/05/31 01:11:47;;;;;;;57.90;2.27;;;8.20;1.00;;;;;;4994904;28;20828;-68
2021/05/31 01:14:21;;;;;;;57.90;2.60;;;8.20;1.00;;;;;;4994718;28;20967;-68
2021/05/31 01:16:52;;;;;;;57.67;2.57;;;8.20;1.00;;;;;;4993738;28;20455;-68
2021/05/31 01:19:36;;;;;;;57.90;2.40;;;8.10;1.00;;;;;;4994413;28;20541;-68
2021/05/31 01:22:08;;;;;;;57.87;2.47;;;8.10;1.00;;;;;;4994643;28;20542;-68
2021/05/31 01:24:58;;;;;;;57.77;2.70;;;8.10;1.00;;;;;;4994743;28;20479;-68
2021/05/31 01:27:33;;;;;;;57.77;2.70;;;8.00;1.00;;;;;;4994068;28;20555;-68
2021/05/31 01:30:04;;;;;;;57.92;2.58;;;8.00;1.00;;;;;;4994438;28;20577;-68
2021/05/31 01:32:34;;;;;;;57.80;2.40;;;8.00;1.00;;;;;;4994436;28;20240;-68
2021/05/31 01:35:03;;;;;;;57.90;2.43;;;7.90;1.00;;;;;;4994365;28;20834;-68
2021/05/31 01:37:31;;;;;;;58.03;2.47;;;7.90;1.00;;;;;;4993857;28;20477;-68
2021/05/31 01:40:02;;;;;;;57.70;2.40;;;7.90;1.00;;;;;;4994463;28;20209;-68
2021/05/31 01:42:29;;;;;;;57.90;2.67;;;7.90;1.00;;;;;;4994353;28;20793;-67
2021/05/31 01:44:55;;;;;;;57.47;2.43;;;7.80;1.00;;;;;;4994162;28;20204;-67
2021/05/31 01:47:24;;;;;;;57.78;2.50;;;7.70;1.00;;;;;;4993854;28;20558;-68
2021/05/31 01:49:51;;;;;;;57.90;2.60;;;7.80;1.00;;;;;;4993871;28;20772;-67
2021/05/31 01:52:18;;;;;;;58.08;2.70;;;7.70;1.00;;;;;;4993837;28;20204;-67
2021/05/31 01:54:44;;;;;;;57.67;2.30;;;7.70;1.00;;;;;;4993983;28;20205;-68
2021/05/31 01:57:12;;;;;;;57.70;2.70;;;7.60;1.00;;;;;;4993547;28;20476;-68
2021/05/31 01:59:38;;;;;;;57.88;2.70;;;7.60;1.00;;;;;;4993808;28;20304;-68
2021/05/31 02:02:05;;;;;;;57.78;2.80;;;7.60;1.00;;;;;;4993801;28;20242;-68
2021/05/31 02:04:33;;;;;;;57.88;2.45;;;7.60;1.00;;;;;;4993682;28;20592;-68
2021/05/31 02:06:59;;;;;;;58.05;2.63;;;7.50;1.00;;;;;;4993494;28;20324;-68
2021/05/31 02:09:26;;;;;;;57.97;2.60;;;7.50;1.00;;;;;;4993681;28;20319;-69
2021/05/31 02:11:58;;;;;;;57.93;2.80;;;7.50;1.00;;;;;;4993784;28;20304;-68
2021/05/31 02:14:33;;;;;;;57.97;2.83;;;7.50;1.00;;;;;;4994247;28;20548;-67
2021/05/31 02:17:04;;;;;;;57.97;2.50;;;7.50;1.00;;;;;;4993071;28;20235;-68
2021/05/31 02:19:34;;;;;;;58.15;2.50;;;7.40;1.00;;;;;;4993384;28;20452;-68
2021/05/31 02:22:03;;;;;;;58.05;2.78;;;7.40;1.00;;;;;;4993613;28;20258;-68
2021/05/31 02:24:31;;;;;;;58.13;2.60;;;7.40;1.00;;;;;;4993448;28;20204;-67
2021/05/31 02:26:58;;;;;;;58.00;2.47;;;7.40;1.00;;;;;;4993124;28;20244;-68
2021/05/31 02:29:26;;;;;;;57.77;2.40;;;7.40;1.00;;;;;;4992922;28;20225;-68
2021/05/31 02:31:53;;;;;;;58.05;2.42;;;7.30;1.00;;;;;;4993647;28;20502;-68
2021/05/31 02:34:20;;;;;;;57.90;2.63;;;7.30;1.00;;;;;;4993322;28;20224;-68
2021/05/31 02:36:48;;;;;;;57.67;2.50;;;7.30;1.00;;;;;;4992967;28;20216;-68
2021/05/31 02:39:15;;;;;;;58.15;2.80;;;7.20;1.00;;;;;;4992939;28;21071;-69
2021/05/31 02:41:41;;;;;;;58.05;2.80;;;7.20;1.00;;;;;;4993118;28;20230;-68
2021/05/31 02:44:07;;;;;;;57.88;2.70;;;7.20;1.00;;;;;;4993166;28;20273;-68
2021/05/31 02:46:34;;;;;;;57.97;2.45;;;7.20;1.00;;;;;;4992904;28;20213;-68
2021/05/31 02:49:00;;;;;;;57.88;2.60;;;7.10;1.00;;;;;;4992895;28;20334;-68
2021/05/31 02:51:27;;;;;;;58.00;2.50;;;7.10;1.00;;;;;;4993032;28;20258;-67
2021/05/31 02:53:54;;;;;;;57.70;2.60;;;7.10;1.00;;;;;;4993001;28;20210;-67
2021/05/31 02:56:21;;;;;;;58.05;2.70;;;7.10;1.00;;;;;;4992667;28;20208;-68
2021/05/31 02:58:47;;;;;;;58.17;2.60;;;7.00;1.00;;;;;;4992718;28;20314;-68
2021/05/31 03:01:15;;;;;;;57.80;2.45;;;7.00;1.00;;;;;;4993027;28;20302;-67
2021/05/31 03:03:41;;;;;;;58.17;2.58;;;7.00;1.00;;;;;;4992935;28;20205;-68
2021/05/31 03:06:07;;;;;;;57.95;2.58;;;7.00;1.00;;;;;;4992487;28;20241;-67
2021/05/31 03:08:34;;;;;;;58.00;2.65;;;7.00;1.00;;;;;;4992619;28;20335;-68
2021/05/31 03:11:02;;;;;;;57.92;2.90;;;7.00;1.00;;;;;;4992583;28;20715;-68
2021/05/31 03:13:28;;;;;;;58.10;2.78;;;7.00;1.00;;;;;;4992503;28;20295;-68
2021/05/31 03:15:55;;;;;;;57.88;2.83;;;6.90;1.00;;;;;;4992795;28;20308;-68
2021/05/31 03:18:21;;;;;;;57.97;2.78;;;6.90;1.00;;;;;;4992279;28;20743;-68
2021/05/31 03:20:48;;;;;;;57.92;2.75;;;6.90;1.00;;;;;;4992809;28;20247;-68
2021/05/31 03:23:14;;;;;;;58.08;2.75;;;6.90;1.00;;;;;;4992568;28;20203;-68
2021/05/31 03:25:41;;;;;;;58.00;2.65;;;6.80;1.00;;;;;;4992457;28;20215;-67
2021/05/31 03:28:09;;;;;;;57.88;2.60;;;6.80;1.00;;;;;;4992025;28;20611;-67
2021/05/31 03:30:36;;;;;;;58.20;2.70;;;6.80;1.00;;;;;;4992545;28;20576;-68
2021/05/31 03:33:03;;;;;;;58.17;2.67;;;6.70;1.00;;;;;;4992645;28;20378;-68
2021/05/31 03:35:29;;;;;;;58.05;2.65;;;6.70;1.00;;;;;;4992528;28;20247;-67
2021/05/31 03:37:56;;;;;;;58.22;2.90;;;6.80;1.00;;;;;;4992178;28;20779;-65
2021/05/31 03:40:23;;;;;;;57.97;2.75;;;6.80;1.00;;;;;;4992637;28;20299;-67
2021/05/31 03:42:50;;;;;;;57.78;2.58;;;6.70;1.00;;;;;;4996619;28;20296;-67
2021/05/31 03:45:18;;;;;;;57.85;2.70;;;6.80;1.00;;;;;;4996531;28;20585;-67
2021/05/31 03:47:45;;;;;;;58.08;2.70;;;6.80;1.00;;;;;;4996249;28;20698;-67
2021/05/31 03:50:12;;;;;;;57.90;2.70;;;6.80;1.00;;;;;;4996154;28;20322;-66
2021/05/31 03:52:39;;;;;;;57.88;2.63;;;6.80;1.00;;;;;;4996296;28;20679;-66
2021/05/31 03:55:07;;;;;;;58.05;2.60;;;6.70;1.00;;;;;;4995984;28;20236;-67
2021/05/31 03:57:35;;;;;;;57.90;2.50;;;6.70;1.00;;;;;;4995982;28;20227;-67
2021/05/31 04:00:02;;;;;;;57.50;2.53;;;6.80;1.00;;;;;;4995914;28;20301;-67
2021/05/31 04:02:30;;;;;;;58.05;2.85;;;6.80;1.00;;;;;;4996202;28;20243;-67
2021/05/31 04:04:57;;;;;;;57.97;2.65;;;6.80;1.00;;;;;;4995907;28;20756;-66
2021/05/31 04:12:51;;;;;;;57.95;2.63;;;6.80;1.00;;;;;;4995836;28;20207;-67
2021/05/31 04:15:18;;;;;;;58.00;2.45;;;6.80;1.00;;;;;;4995899;28;20203;-67
2021/05/31 04:17:45;;;;;;;57.78;2.55;;;6.80;1.00;;;;;;4995372;28;20227;-66
2021/05/31 04:20:13;;;;;;;57.97;2.63;;;6.80;1.00;;;;;;4995525;28;20295;-66
2021/05/31 04:22:40;;;;;;;58.00;2.60;;;6.90;1.00;;;;;;4995909;28;20208;-67
2021/05/31 04:25:07;;;;;;;58.03;2.60;;;6.90;1.00;;;;;;4995747;28;20635;-66
2021/05/31 04:27:33;;;;;;;57.67;2.45;;;6.90;1.00;;;;;;4995320;28;20330;-67
2021/05/31 04:30:00;;;;;;;57.78;2.60;;;7.00;1.00;;;;;;4995560;28;20702;-67
2021/05/31 04:32:26;;;;;;;57.95;2.50;;;7.00;1.00;;;;;;4995459;28;20299;-66
2021/05/31 04:34:54;;;;;;;57.88;2.70;;;7.00;1.00;;;;;;4995362;28;20243;-66
2021/05/31 04:37:20;;;;;;;58.00;2.60;;;7.10;1.00;;;;;;4995256;28;20319;-67
2021/05/31 04:39:47;;;;;;;57.88;2.50;;;7.10;1.00;;;;;;4995206;28;20747;-67
2021/05/31 04:42:13;;;;;;;57.88;2.47;;;7.20;1.00;;;;;;4995340;28;20294;-66
2021/05/31 04:44:39;;;;;;;57.78;2.65;;;7.20;1.00;;;;;;4995368;28;20313;-67
2021/05/31 04:47:07;;;;;;;57.72;2.53;;;7.30;1.00;;;;;;4994881;28;20320;-67
2021/05/31 04:49:34;;;;;;;57.97;2.53;;;7.30;1.00;;;;;;4995251;28;20598;-68
2021/05/31 04:52:02;;;;;;;58.20;2.80;;;7.30;1.00;;;;;;4995066;28;20218;-67
2021/05/31 04:54:29;;;;;;;57.67;2.65;;;7.40;1.00;;;;;;4995240;28;20631;-68
2021/05/31 04:56:55;;;;;;;57.95;2.90;;;7.40;1.00;;;;;;4994677;28;20384;-68
2021/05/31 04:59:21;;;;;;;57.88;2.80;;;7.50;1.00;;;;;;4994920;28;20302;-68
2021/05/31 05:01:48;;;;;;;57.83;2.75;;;7.50;1.00;;;;;;4994860;28;20299;-68
2021/05/31 05:04:14;;;;;;;57.58;2.60;;;7.60;1.00;;;;;;4995067;28;20303;-68
2021/05/31 05:06:41;;;;;;;57.78;2.70;;;7.60;1.00;;;;;;4994808;28;20239;-68
2021/05/31 05:09:08;;;;;;;57.85;2.90;;;7.70;1.00;;;;;;4994838;28;20264;-67
2021/05/31 05:11:35;;;;;;;57.60;2.58;;;7.80;1.00;;;;;;4994789;28;20250;-67
2021/05/31 05:14:01;;;;;;;57.70;2.67;;;7.90;1.00;;;;;;4994723;28;20236;-65
2021/05/31 05:16:28;;;;;;;57.37;2.57;;;8.00;1.00;;;;;;4994318;28;20514;-66
2021/05/31 05:18:55;;;;;;;57.97;3.17;;;8.00;1.00;;;;;;4994894;28;20558;-66
2021/05/31 05:21:22;;;;;;;57.75;2.50;;;8.10;1.00;;;;;;4994758;28;20458;-65
2021/05/31 05:23:49;;;;;;;57.80;2.37;;;8.20;1.00;;;;;;4994645;28;20260;-66
2021/05/31 05:26:19;;;;;;;57.87;2.27;;;8.20;1.00;;;;;;4994352;28;20456;-67
2021/05/31 05:28:45;;;;;;;57.73;2.30;;;8.30;1.00;;;;;;4994203;28;20483;-67
2021/05/31 05:31:11;;;;;;;57.77;2.43;;;8.40;1.00;;;;;;4994392;28;20593;-67
2021/05/31 05:33:42;;;;;;;57.57;2.47;;;8.50;1.00;;;;;;4994568;28;20452;-67
2021/05/31 05:36:17;;;;;;;57.67;2.47;;;8.60;1.00;;;;;;4994121;28;20997;-67
2021/05/31 05:41:37;;;;;;;57.60;2.57;;;8.70;1.00;;;;;;4990168;28;20937;-68
2021/05/31 05:49:41;;;;;;;57.83;2.50;;;9.00;1.00;;;;;;4979347;28;20499;-67
2021/05/31 05:52:11;;;;;;;57.57;2.70;;;9.10;1.00;;;;;;4994042;28;20467;-67
2021/05/31 05:54:37;;;;;;;57.47;2.50;;;9.10;1.00;;;;;;4993945;28;20543;-67
2021/05/31 05:57:06;;;;;;;57.43;2.30;;;9.20;1.00;;;;;;4993704;28;20499;-67
2021/05/31 05:59:33;;;;;;;57.43;2.27;;;9.30;1.00;;;;;;4993691;28;20553;-66
2021/05/31 06:01:59;;;;;;;57.43;2.40;;;9.40;1.00;;;;;;4993871;28;20832;-67
2021/05/31 06:04:26;;;;;;;57.33;2.30;;;9.50;1.00;;;;;;4993184;28;20535;-67
2021/05/31 06:06:52;;;;;;;57.53;2.70;;;9.60;1.00;;;;;;4993896;28;20549;-67
2021/05/31 06:09:20;;;;;;;57.57;2.40;;;9.70;1.00;;;;;;4993650;28;20580;-67
2021/05/31 06:11:47;;;;;;;57.43;2.40;;;9.80;1.00;;;;;;4993501;28;21018;-67
2021/05/31 06:14:14;;;;;;;57.47;2.50;;;9.90;1.00;;;;;;4993604;28;20540;-67
2021/05/31 06:16:41;;;;;;;57.80;2.50;;;10.10;1.00;;;;;;4993197;28;20495;-67
2021/05/31 06:19:07;;;;;;;57.80;2.50;;;10.20;1.00;;;;;;4993590;28;20455;-66
2021/05/31 06:21:34;;;;;;;57.63;2.53;;;10.30;1.00;;;;;;4993431;28;21041;-67
2021/05/31 06:24:00;;;;;;;57.60;2.50;;;10.40;1.00;;;;;;4993461;28;20935;-67
2021/05/31 06:26:26;;;;;;;59.57;4.10;;;10.50;1.00;;;;;;4993170;28;20851;-67
2021/05/31 06:28:53;;;;;;;57.57;2.40;;;10.60;1.00;;;;;;4993221;28;20483;-67
2021/05/31 06:31:20;;;;;;;57.63;2.37;;;10.80;1.00;;;;;;4993094;28;20455;-67
2021/05/31 06:33:47;;;;;;;57.47;2.40;;;10.90;1.00;;;;;;4993422;28;20544;-67
2021/05/31 06:36:13;;;;;;;57.57;2.40;;;11.10;1.00;;;;;;4993006;28;20453;-67
2021/05/31 06:38:40;;;;;;;57.30;2.40;;;11.10;1.00;;;;;;4992968;28;20474;-66
2021/05/31 06:41:06;;;;;;;57.47;2.20;;;11.30;1.00;;;;;;4993130;28;20824;-67
2021/05/31 06:43:33;;;;;;;57.47;2.50;;;11.40;1.00;;;;;;4993092;28;20523;-67
2021/05/31 06:46:00;;;;;;;57.77;2.57;;;11.50;1.00;;;;;;4992907;28;20450;-67
2021/05/31 06:48:27;;;;;;;57.53;2.30;;;11.70;1.00;;;;;;4992606;28;20486;-67
2021/05/31 06:50:54;;;;;;;57.57;2.60;;;11.80;1.00;;;;;;4993186;28;20485;-67
2021/05/31 06:53:21;;;;;;;57.60;2.30;;;11.90;1.00;;;;;;4993154;28;20439;-67
2021/05/31 06:55:48;;;;;;;57.63;2.40;;;12.00;1.00;;;;;;4992946;28;20453;-67
2021/05/31 06:58:14;;;;;;;57.50;2.40;;;12.10;1.00;;;;;;4992616;28;20513;-66
2021/05/31 07:00:41;;;;;;;57.57;2.33;;;12.30;1.00;;;;;;4992822;28;20501;-67
2021/05/31 07:03:09;;;;;;;57.77;2.40;;;12.40;1.00;;;;;;4992855;28;20841;-67
2021/05/31 07:05:36;;;;;;;57.47;2.40;;;12.50;1.00;;;;;;4992841;28;20548;-67
2021/05/31 07:08:03;;;;;;;57.63;2.40;;;12.70;1.00;;;;;;4992384;28;20475;-67
2021/05/31 07:10:30;;;;;;;57.47;2.30;;;12.80;1.00;;;;;;4992659;28;20490;-67
2021/05/31 07:12:57;;;;;;;57.43;2.40;;;13.00;1.00;;;;;;4992463;28;21007;-67
2021/05/31 07:15:24;;;;;;;57.70;3.00;;;13.20;1.00;;;;;;4992146;28;20478;-67
2021/05/31 07:17:51;;;;;;;57.47;2.50;;;13.30;1.00;;;;;;4992466;28;20470;-67
2021/05/31 07:20:19;;;;;;;57.57;2.27;;;13.50;1.00;;;;;;4992484;28;20961;-67
2021/05/31 07:22:47;;;;;;;57.60;2.30;;;13.60;1.00;;;;;;4992769;28;20451;-67
2021/05/31 07:25:15;;;;;;;57.50;2.27;;;13.80;1.00;;;;;;4992505;28;20531;-66
2021/05/31 07:27:42;;;;;;;57.80;2.50;;;14.00;1.00;;;;;;4992076;28;20990;-67
2021/05/31 07:30:10;;;;;;;57.50;2.20;;;14.20;1.00;;;;;;4992455;28;20590;-67
2021/05/31 07:32:37;;;;;;;57.60;2.30;;;14.40;1.00;;;;;;4992841;28;20533;-66
2021/05/31 07:35:04;;;;;;;57.67;2.50;;;14.50;1.00;;;;;;4992332;28;20460;-66
2021/05/31 07:37:31;;;;;;;57.37;2.23;;;14.70;1.00;;;;;;4992166;28;20477;-67
2021/05/31 07:39:58;;;;;;;57.70;2.30;;;14.90;1.00;;;;;;4992226;28;20443;-66
2021/05/31 07:42:25;;;;;;;57.67;2.47;;;15.00;1.00;;;;;;4992515;28;20557;-66
2021/05/31 07:44:51;;;;;;;57.70;2.53;;;15.20;1.00;;;;;;4992510;28;20538;-67
2021/05/31 07:47:18;;;;;;;57.70;2.50;;;15.30;1.00;;;;;;4992049;28;21013;-67
2021/05/31 07:49:44;;;;;;;57.63;2.37;;;15.40;1.00;;;;;;4992362;28;20578;-67
2021/05/31 07:52:19;;;;;;;57.80;2.30;;;15.50;1.00;;;;;;4992270;28;20483;-68
2021/05/31 07:54:46;;;;;;;57.37;2.43;;;15.70;1.00;;;;;;4992190;28;20452;-67
2021/05/31 07:57:15;;;;;;;57.17;2.37;;;15.80;1.00;;;;;;4992062;28;20530;-67
2021/05/31 07:59:42;;;;;;;57.37;2.30;;;16.00;1.00;;;;;;4992290;28;20464;-66
2021/05/31 08:02:09;;;;;;;57.73;2.27;;;16.10;1.00;;;;;;4992120;28;20455;-67
2021/05/31 08:04:35;;;;;;;57.60;2.37;;;16.20;1.00;;;;;;4992152;28;20461;-66
2021/05/31 08:07:02;;;;;;;57.17;2.30;;;16.30;1.00;;;;;;4991806;28;20471;-66
2021/05/31 08:09:28;;;;;;;56.90;2.30;;;16.30;1.00;;;;;;4991847;28;20491;-67
2021/05/31 08:11:55;;;;;;;57.30;2.40;;;16.40;1.00;;;;;;4992257;28;20987;-67
2021/05/31 08:14:23;;;;;;;57.00;2.27;;;16.50;1.00;;;;;;4992069;28;20507;-67
2021/05/31 08:16:50;;;;;;;57.47;2.40;;;16.60;1.00;;;;;;4991978;28;20893;-67
2021/05/31 08:19:17;;;;;;;57.50;2.17;;;16.70;1.00;;;;;;4992020;28;20545;-67
2021/05/31 08:21:43;;;;;;;57.57;2.20;;;16.80;1.00;;;;;;4991727;28;20995;-66
2021/05/31 08:24:10;;;;;;;57.47;2.20;;;16.90;1.00;;;;;;4992156;28;20832;-66
2021/05/31 08:26:37;;;;;;;57.47;2.30;;;16.90;1.00;;;;;;4992701;28;20572;-67
2021/05/31 08:29:04;;;;;;;57.67;2.20;;;17.00;1.00;;;;;;4995576;28;20907;-67
2021/05/31 08:31:32;;;;;;;57.53;2.20;;;17.20;1.00;;;;;;4995588;28;20537;-67
2021/05/31 08:33:58;;;;;;;57.07;2.20;;;17.30;1.00;;;;;;4995462;28;20459;-66
2021/05/31 08:36:25;;;;;;;57.47;2.27;;;17.40;1.00;;;;;;4995051;28;20531;-67
2021/05/31 08:38:57;;;;;;;57.23;2.20;;;17.50;1.00;;;;;;4995476;28;20560;-67
2021/05/31 08:41:24;;;;;;;57.03;2.23;;;17.50;1.00;;;;;;4995497;28;20896;-67
2021/05/31 08:43:50;;;;;;;57.10;2.40;;;17.60;1.00;;;;;;4995361;28;20480;-67
2021/05/31 08:46:16;;;;;;;57.27;2.20;;;17.70;1.00;;;;;;4995062;28;20840;-67
2021/05/31 08:48:44;;;;;;;57.50;2.10;;;17.80;1.00;;;;;;4994926;28;20559;-66
2021/05/31 08:51:11;;;;;;;57.57;2.30;;;17.90;1.00;;;;;;4995334;28;20451;-66
2021/05/31 08:53:37;;;;;;;57.70;2.30;;;18.00;1.00;;;;;;4995385;28;20441;-67
2021/05/31 08:56:04;;;;;;;58.90;4.30;;;18.00;1.00;;;;;;4994940;28;21044;-67
2021/05/31 08:58:31;;;;;;;57.00;2.30;;;18.10;1.00;;;;;;4995079;28;20551;-67
2021/05/31 09:00:57;;;;;;;57.23;2.20;;;18.30;1.00;;;;;;4994913;28;20582;-67
2021/05/31 09:03:23;;;;;;;58.17;3.27;;;18.30;1.00;;;;;;4994818;28;20522;-68
2021/05/31 09:05:51;;;;;;;57.17;2.30;;;18.40;1.00;;;;;;4995177;28;20485;-68
2021/05/31 09:08:19;;;;;;;57.57;2.10;;;18.50;1.00;;;;;;4994671;28;20838;-68
2021/05/31 09:10:49;;;;;;;57.27;2.20;;;18.60;1.00;;;;;;4995000;28;20521;-67
2021/05/31 09:13:27;;;;;;;57.50;2.13;;;18.60;1.00;;;;;;4994749;28;20465;-68
2021/05/31 09:16:04;;;;;;;57.27;2.10;;;18.70;1.00;;;;;;4994574;28;20466;-68
2021/05/31 09:18:30;;;;;;;56.77;2.17;;;18.80;1.00;;;;;;4994733;28;20568;-68
2021/05/31 09:21:09;;;;;;;57.43;2.03;;;18.90;1.00;;;;;;4995075;28;20482;-68
2021/05/31 09:23:36;;;;;;;56.97;2.20;;;19.00;1.00;;;;;;4994561;28;20454;-68
2021/05/31 09:26:04;;;;;;;57.07;2.13;;;19.10;1.00;;;;;;4994378;28;20513;-68
2021/05/31 09:28:30;;;;;;;57.30;2.00;;;19.30;1.00;;;;;;4994159;28;21005;-67
2021/05/31 09:30:57;;;;;;;57.33;2.00;;;19.50;1.00;;;;;;4994356;28;20493;-68
2021/05/31 09:33:23;;;;;;;57.60;2.63;;;19.60;1.00;;;;;;4994510;28;20454;-68
2021/05/31 09:35:50;;;;;;;57.47;2.20;;;19.70;1.00;;;;;;4994306;28;20481;-68
2021/05/31 09:38:19;;;;;;;57.33;2.20;;;19.90;1.00;;;;;;4993185;28;20475;-67
2021/05/31 09:40:54;;;;;;;56.93;2.20;;;20.00;1.00;;;;;;4994253;28;20442;-67
2021/05/31 09:43:22;;;;;;;57.33;2.20;;;20.20;1.00;;;;;;4994597;28;20482;-67
2021/05/31 09:45:49;;;;;;;57.03;2.17;;;20.20;1.00;;;;;;4994591;28;20455;-68
2021/05/31 09:48:16;;;;;;;57.27;2.53;;;20.40;1.00;;;;;;4993866;28;20471;-67
2021/05/31 09:50:53;;;;;;;57.47;2.10;;;20.40;1.00;;;;;;4993951;28;20578;-68
2021/05/31 09:53:21;;;;;;;57.37;2.10;;;20.40;1.00;;;;;;4993926;28;20601;-67
2021/05/31 09:55:47;;;;;;;57.27;2.00;;;20.60;1.00;;;;;;4994001;28;20486;-67
2021/05/31 09:58:15;;;;;;;57.33;2.10;;;20.80;1.00;;;;;;4993565;28;20518;-67
2021/05/31 10:00:48;;;;;;;57.37;2.30;;;20.90;1.00;;;;;;4993758;28;20460;-67
2021/05/31 10:03:24;;;;;;;57.70;2.30;;;21.10;1.00;;;;;;4993892;28;20467;-67
2021/05/31 10:05:59;;;;;;;57.47;1.90;;;21.20;1.00;;;;;;4993588;28;20456;-67
2021/05/31 10:08:40;;;;;;;57.23;2.00;;;21.40;1.00;;;;;;4993744;28;20471;-67
2021/05/31 10:11:07;;;;;;;57.23;2.07;;;21.50;1.00;;;;;;4993846;28;20460;-66
2021/05/31 10:13:33;;;;;;;57.13;2.00;;;21.60;1.00;;;;;;4993528;28;20931;-66
2021/05/31 10:16:05;;;;;;;57.43;2.13;;;;;;;;;;4993685;28;20869;-67
2021/05/31 10:18:32;;;;;;;57.40;2.10;;;22.20;1.00;;;;;;4993200;28;20824;-67
2021/05/31 10:20:58;;;;;;;57.67;2.17;;;23.10;1.00;;;;;;4993803;28;20500;-67
2021/05/31 10:23:26;;;;;;;57.33;1.90;;;24.50;1.00;;;;;;4993560;28;20454;-67
2021/05/31 10:25:58;;;;;;;57.27;1.93;;;25.60;1.00;;;;;;4993426;28;20534;-67
2021/05/31 10:28:29;;;;;;;57.37;2.00;;;26.70;1.00;;;;;;4993314;28;20476;-67
2021/05/31 10:30:59;;;;;;;57.07;1.80;;;27.20;1.00;;;;;;4993087;28;20573;-67
2021/05/31 10:33:26;;;;;;;57.27;1.90;;;28.00;1.00;;;;;;4993142;28;20529;-67
2021/05/31 10:35:55;;;;;;;57.03;2.00;;;28.90;1.00;;;;;;4993315;28;20478;-68
2021/05/31 10:38:23;;;;;;;57.27;2.00;;;29.50;1.00;;;;;;4993081;28;20477;-66
2021/05/31 10:40:52;;;;;;;56.87;1.97;;;30.00;1.00;;;;;;4993110;28;20557;-66
2021/05/31 10:43:21;;;;;;;56.77;1.80;;;30.20;1.00;;;;;;4992908;28;20502;-67
2021/05/31 10:45:49;;;;;;;56.93;1.90;;;30.50;1.00;;;;;;4993176;28;20539;-67
2021/05/31 10:48:17;;;;;;;57.27;2.10;;;30.90;1.00;;;;;;4992745;28;20476;-67
2021/05/31 10:50:45;;;;;;;56.97;1.90;;;31.10;1.00;;;;;;4992911;28;20495;-67
2021/05/31 10:53:26;;;;;;;56.97;1.90;;;31.60;1.00;;;;;;4992835;28;20507;-66
2021/05/31 10:55:55;;;;;;;56.67;1.80;;;32.30;1.00;;;;;;4992783;28;20454;-67
2021/05/31 10:58:23;;;;;;;56.93;1.70;;;32.80;1.00;;;;;;4992356;28;20530;-66
2021/05/31 11:00:55;;;;;;;56.63;1.60;;;33.40;1.00;;;;;;4992625;28;20979;-67
2021/05/31 11:03:22;;;;;;;56.67;1.73;;;33.70;1.00;;;;;;4992930;28;20443;-67
2021/05/31 11:05:48;;;;;;;56.73;1.80;;;34.00;1.00;;;;;;4992704;28;20927;-67
2021/05/31 11:08:24;;;;;;;56.67;1.70;;;34.00;1.00;;;;;;4992251;28;20509;-67
2021/05/31 11:10:57;;;;;;;56.67;1.80;;;33.80;1.00;;;;;;4992846;28;20526;-67
2021/05/31 11:13:23;;;;;;;57.57;2.77;;;34.00;1.00;;;;;;4992682;28;20449;-67
2021/05/31 11:16:01;;;;;;;56.60;1.70;;;34.30;1.00;;;;;;4992668;28;20454;-67
2021/05/31 11:18:33;;;;;;;56.43;1.63;;;34.70;1.00;;;;;;4992404;28;20470;-67
2021/05/31 11:21:00;;;;;;;56.57;1.77;;;34.70;1.00;;;;;;4992467;28;20451;-68
2021/05/31 11:23:27;;;;;;;56.57;1.63;;;34.60;1.00;;;;;;4992485;28;20526;-66
2021/05/31 11:25:53;;;;;;;56.63;1.77;;;34.80;1.00;;;;;;4992682;28;20820;-67
2021/05/31 11:28:24;;;;;;;56.63;1.77;;;35.00;1.00;;;;;;4992269;28;20558;-67
2021/05/31 11:30:51;;;;;;;56.47;1.60;;;35.10;1.00;;;;;;4992965;28;20549;-67
2021/05/31 11:33:18;;;;;;;56.60;1.60;;;35.20;1.00;;;;;;4992360;28;21022;-67
2021/05/31 11:35:45;;;;;;;56.63;1.70;;;35.50;1.00;;;;;;4992360;28;20457;-67
2021/05/31 11:38:12;;;;;;;56.57;1.60;;;35.30;1.00;;;;;;4992296;28;20557;-66
2021/05/31 11:40:41;;;;;;;56.47;1.63;;;34.90;1.00;;;;;;4992344;28;20854;-68
2021/05/31 11:43:10;;;;;;;56.53;1.60;;;34.70;1.00;;;;;;4992581;28;20451;-68
2021/05/31 11:45:40;;;;;;;56.63;1.70;;;34.50;1.00;;;;;;4992393;28;20463;-67
2021/05/31 11:48:09;;;;;;;56.90;2.33;;;34.30;1.00;;;;;;4991969;28;20562;-67
2021/05/31 11:50:40;;;;;;;56.60;1.70;;;34.40;1.00;;;;;;4992437;28;20447;-67
2021/05/31 11:53:07;;;;;;;56.57;1.50;;;34.50;1.00;;;;;;4992445;28;20452;-67
2021/05/31 11:55:34;;;;;;;56.57;1.60;;;34.60;1.00;;;;;;4992238;28;20458;-67
2021/05/31 11:58:01;;;;;;;56.60;1.80;;;34.60;1.00;;;;;;4992140;28;20561;-68
2021/05/31 12:00:30;;;;;;;56.53;1.67;;;34.50;1.00;;;;;;4991875;28;20486;-68
2021/05/31 12:02:57;;;;;;;56.70;1.70;;;34.80;1.00;;;;;;4995472;28;20449;-68
2021/05/31 12:05:33;;;;;;;56.50;1.53;;;35.20;1.00;;;;;;4996194;28;20541;-68
2021/05/31 12:08:05;;;;;;;56.50;1.60;;;35.70;1.00;;;;;;4995843;28;20480;-69
2021/05/31 12:10:31;;;;;;;56.57;1.90;;;36.50;1.00;;;;;;4995823;28;20981;-68
2021/05/31 12:12:58;;;;;;;56.57;1.67;;;36.70;1.00;;;;;;4995737;28;20549;-67
2021/05/31 12:15:24;;;;;;;56.17;1.67;;;37.10;1.00;;;;;;4996076;28;20867;-68
2021/05/31 12:17:53;;;;;;;57.57;2.00;;;37.10;1.00;;;;;;4995686;28;20561;-68
2021/05/31 12:20:24;;;;;;;56.33;1.60;;;37.40;1.00;;;;;;4995632;28;20529;-68
2021/05/31 12:22:51;;;;;;;56.33;1.80;;;37.50;1.00;;;;;;4996119;28;20530;-68
2021/05/31 12:25:17;;;;;;;56.47;1.67;;;37.50;1.00;;;;;;4995681;28;20533;-68
2021/05/31 12:27:43;;;;;;;56.50;1.60;;;37.30;1.00;;;;;;4995284;28;20521;-68
2021/05/31 12:30:13;;;;;;;56.47;1.63;;;37.30;1.00;;;;;;4995698;28;20485;-68
2021/05/31 12:32:39;;;;;;;56.57;1.70;;;37.50;1.00;;;;;;4995560;28;20531;-66
2021/05/31 12:35:07;;;;;;;56.43;1.70;;;37.70;1.00;;;;;;4995565;28;20453;-66
2021/05/31 12:37:36;;;;;;;56.30;1.83;;;37.80;1.00;;;;;;4995125;28;20502;-67
2021/05/31 12:40:06;;;;;;;56.40;1.70;;;38.00;1.00;;;;;;4995131;28;20490;-66
2021/05/31 12:42:33;;;;;;;56.23;1.60;;;38.00;1.00;;;;;;4995367;28;20462;-66
2021/05/31 12:45:05;;;;;;;56.23;1.70;;;38.30;1.00;;;;;;4995199;28;21011;-67
2021/05/31 12:47:38;;;;;;;56.47;1.83;;;38.50;1.00;;;;;;4994895;28;20892;-68
2021/05/31 12:50:07;;;;;;;56.37;1.70;;;38.60;1.00;;;;;;4995454;28;20467;-67
2021/05/31 12:52:38;;;;;;;56.33;1.73;;;38.50;1.00;;;;;;4995509;28;20542;-67
2021/05/31 12:55:08;;;;;;;56.17;1.80;;;38.60;1.00;;;;;;4995362;28;20483;-67
2021/05/31 12:57:37;;;;;;;56.23;2.10;;;38.60;1.00;;;;;;4995009;28;20508;-67
2021/05/31 13:00:07;;;;;;;56.47;1.87;;;38.40;1.00;;;;;;4994693;28;20486;-68
2021/05/31 13:02:38;;;;;;;56.43;1.60;;;38.20;1.00;;;;;;4994989;28;20469;-67
2021/05/31 13:05:07;;;;;;;56.47;1.60;;;37.70;1.00;;;;;;4994833;28;20534;-67
2021/05/31 13:07:37;;;;;;;56.60;1.60;;;37.10;1.00;;;;;;4994817;28;20894;-67
2021/05/31 13:10:07;;;;;;;56.57;1.83;;;36.40;1.00;;;;;;4994940;28;20461;-67